createdAt,value
2023-06-28T00:00:10.245Z,1003.71
2023-06-28T00:01:10.252Z,1003.70
2023-06-28T00:02:10.322Z,1003.70
2023-06-28T00:03:10.229Z,1003.68
2023-06-28T00:04:10.316Z,1003.63
2023-06-28T00:05:10.194Z,1003.69
2023-06-28T00:06:10.178Z,1003.62
2023-06-28T00:07:10.298Z,1003.62
2023-06-28T00:08:10.181Z,1003.64
2023-06-28T00:09:10.160Z,1003.64
2023-06-28T00:10:10.218Z,1003.60
2023-06-28T00:11:10.135Z,1003.65
2023-06-28T00:12:10.119Z,1003.62
2023-06-28T00:13:10.126Z,1003.61
2023-06-28T00:14:10.099Z,1003.66
2023-06-28T00:15:10.131Z,1003.65
2023-06-28T00:16:10.106Z,1003.63
2023-06-28T00:17:10.076Z,1003.65
2023-06-28T00:18:10.127Z,1003.67
2023-06-28T00:19:10.047Z,1003.67
2023-06-28T00:20:10.052Z,1003.73
2023-06-28T00:21:10.044Z,1003.70
2023-06-28T00:22:10.063Z,1003.71
2023-06-28T00:23:10.024Z,1003.71
2023-06-28T00:24:09.986Z,1003.70
2023-06-28T00:25:10.011Z,1003.70
2023-06-28T00:26:09.993Z,1003.65
2023-06-28T00:27:09.992Z,1003.68
2023-06-28T00:28:10.998Z,1003.63
2023-06-28T00:29:09.975Z,1003.68
2023-06-28T00:30:10.448Z,1003.68
2023-06-28T00:31:09.931Z,1003.67
2023-06-28T00:32:10.970Z,1003.63
2023-06-28T00:33:10.011Z,1003.69
2023-06-28T00:34:09.960Z,1003.69
2023-06-28T00:35:10.016Z,1003.67
2023-06-28T00:36:09.958Z,1003.68
2023-06-28T00:37:10.403Z,1003.67
2023-06-28T00:38:10.450Z,1003.67
2023-06-28T00:39:10.461Z,1003.71
2023-06-28T00:40:10.451Z,1003.69
2023-06-28T00:41:10.431Z,1003.69
2023-06-28T00:42:10.452Z,1003.69
2023-06-28T00:43:09.797Z,1003.68
2023-06-28T00:44:10.450Z,1003.69
2023-06-28T00:45:10.446Z,1003.71
2023-06-28T00:46:10.408Z,1003.69
2023-06-28T00:47:10.406Z,1003.70
2023-06-28T00:48:10.452Z,1003.70
2023-06-28T00:49:10.455Z,1003.72
2023-06-28T00:50:10.415Z,1003.71
2023-06-28T00:51:10.472Z,1003.73
2023-06-28T00:52:10.472Z,1003.71
2023-06-28T00:53:09.722Z,1003.73
2023-06-28T00:54:10.435Z,1003.73
2023-06-28T00:55:10.408Z,1003.76
2023-06-28T00:56:10.407Z,1003.74
2023-06-28T00:57:09.672Z,1003.76
2023-06-28T00:58:09.636Z,1003.76
2023-06-28T00:59:09.626Z,1003.77
2023-06-28T01:00:10.412Z,1003.80
2023-06-28T01:01:09.599Z,1003.76
2023-06-28T01:02:09.642Z,1003.79
2023-06-28T01:03:09.689Z,1003.78
2023-06-28T01:04:09.567Z,1003.79
2023-06-28T01:05:09.584Z,1003.76
2023-06-28T01:06:09.570Z,1003.80
2023-06-28T01:07:09.571Z,1003.82
2023-06-28T01:08:09.593Z,1003.81
2023-06-28T01:09:09.516Z,1003.79
2023-06-28T01:10:09.540Z,1003.79
2023-06-28T01:11:09.504Z,1003.78
2023-06-28T01:12:09.501Z,1003.79
2023-06-28T01:13:09.468Z,1003.76
2023-06-28T01:14:09.478Z,1003.74
2023-06-28T01:15:09.450Z,1003.79
2023-06-28T01:16:09.438Z,1003.79
2023-06-28T01:17:09.423Z,1003.78
2023-06-28T01:18:09.433Z,1003.75
2023-06-28T01:19:09.422Z,1003.76
2023-06-28T01:20:09.400Z,1003.82
2023-06-28T01:21:09.378Z,1003.83
2023-06-28T01:22:09.378Z,1003.81
2023-06-28T01:23:09.365Z,1003.85
2023-06-28T01:24:09.392Z,1003.87
2023-06-28T01:25:09.359Z,1003.88
2023-06-28T01:26:09.350Z,1003.85
2023-06-28T01:27:09.320Z,1003.85
2023-06-28T01:28:09.305Z,1003.87
2023-06-28T01:29:09.303Z,1003.83
2023-06-28T01:30:09.308Z,1003.97
2023-06-28T01:31:09.311Z,1003.91
2023-06-28T01:32:09.261Z,1003.97
2023-06-28T01:33:09.292Z,1003.94
2023-06-28T01:34:09.255Z,1003.92
2023-06-28T01:35:09.225Z,1003.96
2023-06-28T01:36:09.240Z,1003.91
2023-06-28T01:37:09.244Z,1003.90
2023-06-28T01:38:09.199Z,1003.94
2023-06-28T01:39:09.200Z,1003.96
2023-06-28T01:40:09.217Z,1003.98
2023-06-28T01:41:09.173Z,1003.93
2023-06-28T01:42:09.172Z,1003.92
2023-06-28T01:43:09.182Z,1003.90
2023-06-28T01:44:09.136Z,1003.91
2023-06-28T01:45:09.138Z,1003.95
2023-06-28T01:46:09.148Z,1003.91
2023-06-28T01:47:09.098Z,1003.87
2023-06-28T01:48:09.144Z,1003.87
2023-06-28T01:49:09.097Z,1003.90
2023-06-28T01:50:09.088Z,1003.87
2023-06-28T01:51:09.068Z,1003.88
2023-06-28T01:52:09.050Z,1003.87
2023-06-28T01:53:09.035Z,1003.79
2023-06-28T01:54:09.022Z,1003.89
2023-06-28T01:55:09.033Z,1003.78
2023-06-28T01:56:09.054Z,1003.90
2023-06-28T01:57:09.009Z,1003.86
2023-06-28T01:58:08.994Z,1003.89
2023-06-28T01:59:08.973Z,1003.83
2023-06-28T02:00:08.984Z,1003.86
2023-06-28T02:01:09.028Z,1003.89
2023-06-28T02:02:08.938Z,1003.85
2023-06-28T02:03:08.983Z,1003.91
2023-06-28T02:04:08.995Z,1003.91
2023-06-28T02:05:08.905Z,1003.86
2023-06-28T02:06:08.890Z,1003.91
2023-06-28T02:07:08.957Z,1003.90
2023-06-28T02:08:08.886Z,1003.91
2023-06-28T02:09:08.870Z,1003.89
2023-06-28T02:10:08.855Z,1003.89
2023-06-28T02:11:08.840Z,1003.90
2023-06-28T02:12:08.880Z,1003.89
2023-06-28T02:13:08.836Z,1003.87
2023-06-28T02:14:08.811Z,1003.78
2023-06-28T02:15:08.790Z,1003.84
2023-06-28T02:16:08.862Z,1003.84
2023-06-28T02:17:08.799Z,1003.90
2023-06-28T02:18:08.783Z,1003.88
2023-06-28T02:19:08.765Z,1003.90
2023-06-28T02:20:08.762Z,1003.83
2023-06-28T02:21:08.782Z,1003.88
2023-06-28T02:22:08.742Z,1003.84
2023-06-28T02:23:08.727Z,1003.88
2023-06-28T02:24:08.697Z,1003.85
2023-06-28T02:25:08.730Z,1003.85
2023-06-28T02:26:08.702Z,1003.85
2023-06-28T02:27:08.686Z,1003.83
2023-06-28T02:28:08.704Z,1003.83
2023-06-28T02:29:08.658Z,1003.85
2023-06-28T02:30:08.657Z,1003.86
2023-06-28T02:31:08.648Z,1003.87
2023-06-28T02:32:08.627Z,1003.86
2023-06-28T02:33:08.628Z,1003.86
2023-06-28T02:34:08.623Z,1003.89
2023-06-28T02:35:08.583Z,1003.86
2023-06-28T02:36:08.584Z,1003.86
2023-06-28T02:37:08.560Z,1003.87
2023-06-28T02:38:08.556Z,1003.85
2023-06-28T02:39:08.581Z,1003.80
2023-06-28T02:40:08.527Z,1003.87
2023-06-28T02:41:08.519Z,1003.86
2023-06-28T02:42:08.524Z,1003.90
2023-06-28T02:43:08.511Z,1003.87
2023-06-28T02:44:08.536Z,1003.91
2023-06-28T02:45:08.478Z,1003.92
2023-06-28T02:46:08.521Z,1003.93
2023-06-28T02:47:08.461Z,1003.90
2023-06-28T02:48:08.472Z,1003.93
2023-06-28T02:49:08.428Z,1003.95
2023-06-28T02:50:08.417Z,1003.94
2023-06-28T02:51:08.403Z,1003.92
2023-06-28T02:52:08.437Z,1003.95
2023-06-28T02:53:08.386Z,1003.95
2023-06-28T02:54:08.410Z,1003.95
2023-06-28T02:55:08.358Z,1003.92
2023-06-28T02:56:08.348Z,1003.97
2023-06-28T02:57:08.333Z,1003.96
2023-06-28T02:58:08.366Z,1003.93
2023-06-28T02:59:08.314Z,1003.91
2023-06-28T03:00:08.325Z,1003.94
2023-06-28T03:01:08.383Z,1003.94
2023-06-28T03:02:08.308Z,1003.92
2023-06-28T03:03:08.355Z,1003.94
2023-06-28T03:04:08.327Z,1003.91
2023-06-28T03:05:08.247Z,1003.89
2023-06-28T03:06:08.405Z,1003.89
2023-06-28T03:07:08.232Z,1003.88
2023-06-28T03:08:08.227Z,1003.90
2023-06-28T03:09:08.228Z,1003.91
2023-06-28T03:10:08.220Z,1003.90
2023-06-28T03:11:08.182Z,1003.88
2023-06-28T03:12:08.184Z,1003.93
2023-06-28T03:13:08.169Z,1003.89
2023-06-28T03:14:08.174Z,1003.89
2023-06-28T03:15:08.150Z,1003.88
2023-06-28T03:16:08.153Z,1003.90
2023-06-28T03:17:08.122Z,1003.87
2023-06-28T03:18:08.168Z,1003.89
2023-06-28T03:19:08.101Z,1003.89
2023-06-28T03:20:08.093Z,1003.91
2023-06-28T03:21:08.076Z,1003.89
2023-06-28T03:22:08.114Z,1003.91
2023-06-28T03:23:08.057Z,1003.93
2023-06-28T03:24:08.048Z,1003.86
2023-06-28T03:25:08.035Z,1003.90
2023-06-28T03:26:08.024Z,1003.91
2023-06-28T03:27:08.011Z,1003.85
2023-06-28T03:28:08.046Z,1003.87
2023-06-28T03:29:07.989Z,1003.84
2023-06-28T03:30:07.978Z,1003.86
2023-06-28T03:31:07.974Z,1003.90
2023-06-28T03:32:08.031Z,1003.88
2023-06-28T03:33:07.941Z,1003.86
2023-06-28T03:34:07.962Z,1003.86
2023-06-28T03:35:07.929Z,1003.85
2023-06-28T03:36:08.016Z,1003.80
2023-06-28T03:37:07.936Z,1003.81
2023-06-28T03:38:07.983Z,1003.81
2023-06-28T03:39:07.911Z,1003.79
2023-06-28T03:40:07.878Z,1003.81
2023-06-28T03:41:07.854Z,1003.82
2023-06-28T03:42:07.870Z,1003.78
2023-06-28T03:43:07.980Z,1003.74
2023-06-28T03:44:09.644Z,1003.75
2023-06-28T03:45:07.831Z,1003.77
2023-06-28T03:46:07.849Z,1003.79
2023-06-28T03:47:07.826Z,1003.77
2023-06-28T03:48:07.812Z,1003.78
2023-06-28T03:49:07.771Z,1003.76
2023-06-28T03:50:07.806Z,1003.77
2023-06-28T03:51:07.764Z,1003.75
2023-06-28T03:52:07.740Z,1003.68
2023-06-28T03:53:07.718Z,1003.68
2023-06-28T03:54:07.718Z,1003.76
2023-06-28T03:55:07.740Z,1003.72
2023-06-28T03:56:07.728Z,1003.71
2023-06-28T03:57:07.672Z,1003.77
2023-06-28T03:58:07.666Z,1003.74
2023-06-28T03:59:07.657Z,1003.75
2023-06-28T04:00:07.670Z,1003.78
2023-06-28T04:01:07.648Z,1003.76
2023-06-28T04:02:07.716Z,1003.83
2023-06-28T04:03:07.672Z,1003.81
2023-06-28T04:04:07.675Z,1003.81
2023-06-28T04:05:07.604Z,1003.83
2023-06-28T04:06:07.583Z,1003.81
2023-06-28T04:07:07.626Z,1003.79
2023-06-28T04:08:07.570Z,1003.82
2023-06-28T04:09:07.560Z,1003.83
2023-06-28T04:10:07.567Z,1003.86
2023-06-28T04:11:07.525Z,1003.81
2023-06-28T04:12:07.519Z,1003.79
2023-06-28T04:13:07.515Z,1003.81
2023-06-28T04:14:07.499Z,1003.75
2023-06-28T04:15:07.596Z,1003.82
2023-06-28T04:16:07.476Z,1003.81
2023-06-28T04:17:07.462Z,1003.80
2023-06-28T04:18:07.470Z,1003.76
2023-06-28T04:19:07.461Z,1003.72
2023-06-28T04:20:07.457Z,1003.77
2023-06-28T04:21:07.432Z,1003.71
2023-06-28T04:22:07.422Z,1003.72
2023-06-28T04:23:07.415Z,1003.72
2023-06-28T04:24:07.402Z,1003.68
2023-06-28T04:25:07.372Z,1003.73
2023-06-28T04:26:07.368Z,1003.70
2023-06-28T04:27:07.449Z,1003.70
2023-06-28T04:28:07.346Z,1003.73
2023-06-28T04:29:07.344Z,1003.66
2023-06-28T04:30:07.395Z,1003.64
2023-06-28T04:31:07.372Z,1003.71
2023-06-28T04:32:07.299Z,1003.68
2023-06-28T04:33:07.384Z,1003.70
2023-06-28T04:34:07.295Z,1003.75
2023-06-28T04:35:07.289Z,1003.74
2023-06-28T04:36:07.276Z,1003.79
2023-06-28T04:37:15.394Z,1003.77
2023-06-28T04:38:08.340Z,1003.75
2023-06-28T04:39:07.239Z,1003.76
2023-06-28T04:40:07.221Z,1003.80
2023-06-28T04:41:07.443Z,1003.85
2023-06-28T04:42:07.193Z,1003.85
2023-06-28T04:43:07.178Z,1003.77
2023-06-28T04:44:07.236Z,1003.74
2023-06-28T04:45:07.156Z,1003.72
2023-06-28T04:46:07.199Z,1003.74
2023-06-28T04:47:07.186Z,1003.72
2023-06-28T04:48:07.272Z,1003.72
2023-06-28T04:49:08.207Z,1003.74
2023-06-28T04:50:07.137Z,1003.70
2023-06-28T04:51:07.098Z,1003.70
2023-06-28T04:52:07.108Z,1003.71
2023-06-28T04:53:07.085Z,1003.71
2023-06-28T04:54:07.080Z,1003.72
2023-06-28T04:55:07.047Z,1003.79
2023-06-28T04:56:07.076Z,1003.85
2023-06-28T04:57:07.048Z,1003.81
2023-06-28T04:58:07.065Z,1003.84
2023-06-28T04:59:07.011Z,1003.75
2023-06-28T05:00:06.993Z,1003.75
2023-06-28T05:01:06.997Z,1003.75
2023-06-28T05:02:07.053Z,1003.74
2023-06-28T05:03:07.032Z,1003.74
2023-06-28T05:04:06.976Z,1003.77
2023-06-28T05:05:06.946Z,1003.78
2023-06-28T05:06:06.932Z,1003.76
2023-06-28T05:07:06.987Z,1003.78
2023-06-28T05:08:06.978Z,1003.77
2023-06-28T05:09:06.893Z,1003.74
2023-06-28T05:10:06.889Z,1003.74
2023-06-28T05:11:06.891Z,1003.73
2023-06-28T05:12:06.860Z,1003.75
2023-06-28T05:13:06.854Z,1003.69
2023-06-28T05:14:06.899Z,1003.69
2023-06-28T05:15:06.834Z,1003.71
2023-06-28T05:16:06.821Z,1003.73
2023-06-28T05:17:06.833Z,1003.74
2023-06-28T05:18:06.853Z,1003.77
2023-06-28T05:19:06.809Z,1003.75
2023-06-28T05:20:06.835Z,1003.78
2023-06-28T05:21:06.772Z,1003.76
2023-06-28T05:22:06.781Z,1003.74
2023-06-28T05:23:06.747Z,1003.73
2023-06-28T05:24:06.773Z,1003.74
2023-06-28T05:25:06.720Z,1003.72
2023-06-28T05:26:06.768Z,1003.74
2023-06-28T05:27:06.700Z,1003.78
2023-06-28T05:28:06.686Z,1003.76
2023-06-28T05:29:06.692Z,1003.80
2023-06-28T05:30:06.681Z,1003.82
2023-06-28T05:31:06.703Z,1003.76
2023-06-28T05:32:06.716Z,1003.76
2023-06-28T05:33:06.647Z,1003.75
2023-06-28T05:34:06.630Z,1003.78
2023-06-28T05:35:06.722Z,1003.73
2023-06-28T05:36:06.605Z,1003.75
2023-06-28T05:37:06.596Z,1003.72
2023-06-28T05:38:06.633Z,1003.70
2023-06-28T05:39:06.596Z,1003.68
2023-06-28T05:40:06.607Z,1003.66
2023-06-28T05:41:06.565Z,1003.65
2023-06-28T05:42:06.533Z,1003.68
2023-06-28T05:43:06.544Z,1003.66
2023-06-28T05:44:06.543Z,1003.60
2023-06-28T05:45:06.530Z,1003.68
2023-06-28T05:46:06.506Z,1003.69
2023-06-28T05:47:06.488Z,1003.68
2023-06-28T05:48:06.604Z,1003.68
2023-06-28T05:49:06.519Z,1003.72
2023-06-28T05:50:06.465Z,1003.69
2023-06-28T05:51:06.485Z,1003.72
2023-06-28T05:52:06.470Z,1003.71
2023-06-28T05:53:06.422Z,1003.72
2023-06-28T05:54:06.455Z,1003.78
2023-06-28T05:55:06.418Z,1003.74
2023-06-28T05:56:06.459Z,1003.76
2023-06-28T05:57:06.451Z,1003.80
2023-06-28T05:58:06.409Z,1003.84
2023-06-28T05:59:06.399Z,1003.78
2023-06-28T06:00:06.340Z,1003.81
2023-06-28T06:01:06.357Z,1003.82
2023-06-28T06:02:06.340Z,1003.77
2023-06-28T06:03:06.441Z,1003.83
2023-06-28T06:04:06.354Z,1003.77
2023-06-28T06:05:06.331Z,1003.78
2023-06-28T06:06:06.281Z,1003.80
2023-06-28T06:07:06.335Z,1003.81
2023-06-28T06:08:06.260Z,1003.79
2023-06-28T06:09:06.301Z,1003.80
2023-06-28T06:10:06.241Z,1003.80
2023-06-28T06:11:06.242Z,1003.76
2023-06-28T06:12:06.232Z,1003.86
2023-06-28T06:13:06.250Z,1003.82
2023-06-28T06:14:06.197Z,1003.79
2023-06-28T06:15:06.272Z,1003.80
2023-06-28T06:16:06.177Z,1003.78
2023-06-28T06:17:06.166Z,1003.76
2023-06-28T06:18:06.272Z,1003.74
2023-06-28T06:19:06.199Z,1003.77
2023-06-28T06:20:06.156Z,1003.72
2023-06-28T06:21:06.173Z,1003.70
2023-06-28T06:22:06.121Z,1003.69
2023-06-28T06:23:06.102Z,1003.73
2023-06-28T06:24:06.094Z,1003.70
2023-06-28T06:25:06.089Z,1003.73
2023-06-28T06:26:06.063Z,1003.72
2023-06-28T06:27:06.065Z,1003.75
2023-06-28T06:28:06.100Z,1003.71
2023-06-28T06:29:06.033Z,1003.73
2023-06-28T06:30:06.030Z,1003.75
2023-06-28T06:31:06.021Z,1003.78
2023-06-28T06:32:06.021Z,1003.74
2023-06-28T06:33:06.085Z,1003.73
2023-06-28T06:34:06.048Z,1003.75
2023-06-28T06:35:06.001Z,1003.75
2023-06-28T06:36:05.997Z,1003.75
2023-06-28T06:37:06.009Z,1003.75
2023-06-28T06:38:05.988Z,1003.75
2023-06-28T06:39:05.978Z,1003.77
2023-06-28T06:40:05.944Z,1003.79
2023-06-28T06:41:05.912Z,1003.81
2023-06-28T06:42:05.936Z,1003.78
2023-06-28T06:43:05.898Z,1003.79
2023-06-28T06:44:05.923Z,1003.79
2023-06-28T06:45:05.921Z,1003.76
2023-06-28T06:46:05.863Z,1003.77
2023-06-28T06:47:05.878Z,1003.77
2023-06-28T06:48:05.956Z,1003.80
2023-06-28T06:49:05.850Z,1003.83
2023-06-28T06:50:05.883Z,1003.82
2023-06-28T06:51:05.828Z,1003.78
2023-06-28T06:52:05.822Z,1003.80
2023-06-28T06:53:05.797Z,1003.79
2023-06-28T06:54:05.794Z,1003.82
2023-06-28T06:55:05.767Z,1003.81
2023-06-28T06:56:05.844Z,1003.81
2023-06-28T06:57:05.767Z,1003.81
2023-06-28T06:58:05.742Z,1003.84
2023-06-28T06:59:05.731Z,1003.83
2023-06-28T07:00:05.905Z,1003.80
2023-06-28T07:01:05.766Z,1003.79
2023-06-28T07:02:05.790Z,1003.81
2023-06-28T07:03:05.748Z,1003.81
2023-06-28T07:04:05.680Z,1003.86
2023-06-28T07:05:05.697Z,1003.86
2023-06-28T07:06:05.639Z,1003.84
2023-06-28T07:07:05.680Z,1003.84
2023-06-28T07:08:05.665Z,1003.76
2023-06-28T07:09:05.687Z,1003.74
2023-06-28T07:10:05.593Z,1003.76
2023-06-28T07:11:05.592Z,1003.82
2023-06-28T07:12:05.597Z,1003.81
2023-06-28T07:13:05.586Z,1003.88
2023-06-28T07:14:05.552Z,1003.88
2023-06-28T07:15:05.563Z,1003.93
2023-06-28T07:16:05.608Z,1003.87
2023-06-28T07:17:05.568Z,1003.87
2023-06-28T07:18:05.600Z,1003.86
2023-06-28T07:19:05.608Z,1003.86
2023-06-28T07:20:05.490Z,1003.91
2023-06-28T07:21:05.486Z,1003.90
2023-06-28T07:22:05.479Z,1003.91
2023-06-28T07:23:05.456Z,1003.89
2023-06-28T07:24:05.488Z,1003.89
2023-06-28T07:25:05.442Z,1003.88
2023-06-28T07:26:05.439Z,1003.86
2023-06-28T07:27:05.409Z,1003.81
2023-06-28T07:28:05.406Z,1003.82
2023-06-28T07:29:05.425Z,1003.80
2023-06-28T07:30:05.442Z,1003.78
2023-06-28T07:31:05.392Z,1003.81
2023-06-28T07:32:05.462Z,1003.77
2023-06-28T07:33:06.139Z,1003.80
2023-06-28T07:34:05.357Z,1003.88
2023-06-28T07:35:05.323Z,1003.90
2023-06-28T07:36:05.373Z,1003.91
2023-06-28T07:37:05.305Z,1003.92
2023-06-28T07:38:05.309Z,1003.92
2023-06-28T07:39:05.301Z,1003.88
2023-06-28T07:40:05.323Z,1003.91
2023-06-28T07:41:07.439Z,1003.88
2023-06-28T07:42:05.278Z,1003.88
2023-06-28T07:43:05.247Z,1003.90
2023-06-28T07:44:05.262Z,1003.87
2023-06-28T07:45:05.212Z,1003.84
2023-06-28T07:46:05.261Z,1003.80
2023-06-28T07:47:05.194Z,1003.76
2023-06-28T07:48:05.616Z,1003.78
2023-06-28T07:49:05.171Z,1003.74
2023-06-28T07:50:05.181Z,1003.79
2023-06-28T07:51:05.167Z,1003.76
2023-06-28T07:52:05.156Z,1003.73
2023-06-28T07:53:05.135Z,1003.80
2023-06-28T07:54:06.644Z,1003.80
2023-06-28T07:55:05.135Z,1003.80
2023-06-28T07:56:05.093Z,1003.82
2023-06-28T07:57:05.105Z,1003.84
2023-06-28T07:58:05.086Z,1003.86
2023-06-28T07:59:05.068Z,1003.78
2023-06-28T08:00:05.084Z,1003.79
2023-06-28T08:01:05.108Z,1003.78
2023-06-28T08:02:05.038Z,1003.80
2023-06-28T08:03:05.101Z,1003.80
2023-06-28T08:04:05.348Z,1003.80
2023-06-28T08:05:05.135Z,1003.80
2023-06-28T08:06:05.035Z,1003.79
2023-06-28T08:07:05.019Z,1003.79
2023-06-28T08:08:04.994Z,1003.76
2023-06-28T08:09:04.970Z,1003.79
2023-06-28T08:10:04.962Z,1003.73
2023-06-28T08:11:04.937Z,1003.78
2023-06-28T08:12:04.963Z,1003.75
2023-06-28T08:13:04.920Z,1003.82
2023-06-28T08:14:04.937Z,1003.80
2023-06-28T08:15:04.921Z,1003.80
2023-06-28T08:16:04.881Z,1003.80
2023-06-28T08:17:04.872Z,1003.82
2023-06-28T08:18:04.907Z,1003.86
2023-06-28T08:19:04.856Z,1003.86
2023-06-28T08:20:04.868Z,1003.84
2023-06-28T08:21:04.849Z,1003.89
2023-06-28T08:22:04.817Z,1003.86
2023-06-28T08:23:04.808Z,1003.85
2023-06-28T08:24:04.817Z,1003.87
2023-06-28T08:25:04.833Z,1003.83
2023-06-28T08:26:04.799Z,1003.86
2023-06-28T08:27:04.787Z,1003.90
2023-06-28T08:28:04.741Z,1003.89
2023-06-28T08:29:04.767Z,1003.92
2023-06-28T08:30:04.910Z,1003.91
2023-06-28T08:31:04.793Z,1003.88
2023-06-28T08:32:04.705Z,1003.90
2023-06-28T08:33:04.875Z,1003.85
2023-06-28T08:34:04.683Z,1003.75
2023-06-28T08:35:04.757Z,1003.83
2023-06-28T08:36:04.725Z,1003.83
2023-06-28T08:37:04.715Z,1003.84
2023-06-28T08:38:04.644Z,1003.90
2023-06-28T08:39:04.665Z,1003.96
2023-06-28T08:40:04.649Z,1003.97
2023-06-28T08:41:04.613Z,1003.83
2023-06-28T08:42:04.598Z,1003.85
2023-06-28T08:43:04.658Z,1003.83
2023-06-28T08:44:04.596Z,1003.88
2023-06-28T08:45:04.585Z,1003.89
2023-06-28T08:46:04.601Z,1003.82
2023-06-28T08:47:04.623Z,1003.84
2023-06-28T08:48:12.960Z,1003.86
2023-06-28T08:49:05.780Z,1003.79
2023-06-28T08:50:04.511Z,1003.82
2023-06-28T08:51:04.522Z,1003.76
2023-06-28T08:52:04.536Z,1003.83
2023-06-28T08:53:04.487Z,1003.83
2023-06-28T08:54:04.483Z,1003.79
2023-06-28T08:56:04.446Z,1003.77
2023-06-28T08:57:12.480Z,1003.81
2023-06-28T08:58:05.451Z,1003.86
2023-06-28T08:59:04.477Z,1003.83
2023-06-28T09:00:04.406Z,1003.84
2023-06-28T09:01:04.434Z,1003.83
2023-06-28T09:02:04.578Z,1003.87
2023-06-28T09:03:06.806Z,1003.87
2023-06-28T09:04:04.519Z,1003.86
2023-06-28T09:05:04.370Z,1003.87
2023-06-28T09:06:04.352Z,1003.91
2023-06-28T09:07:04.433Z,1003.89
2023-06-28T09:08:04.386Z,1003.91
2023-06-28T09:09:04.312Z,1003.90
2023-06-28T09:10:04.309Z,1003.90
2023-06-28T09:11:04.319Z,1003.94
2023-06-28T09:12:04.286Z,1003.94
2023-06-28T09:13:04.307Z,1003.92
2023-06-28T09:14:04.257Z,1003.90
2023-06-28T09:15:04.264Z,1003.92
2023-06-28T09:16:04.276Z,1003.89
2023-06-28T09:17:04.224Z,1003.92
2023-06-28T09:18:04.329Z,1003.92
2023-06-28T09:19:04.262Z,1003.93
2023-06-28T09:20:04.227Z,1003.92
2023-06-28T09:21:04.201Z,1003.95
2023-06-28T09:22:04.245Z,1003.92
2023-06-28T09:23:04.177Z,1003.96
2023-06-28T09:24:04.248Z,1003.94
2023-06-28T09:25:04.213Z,1003.93
2023-06-28T09:26:04.198Z,1003.92
2023-06-28T09:27:04.234Z,1003.87
2023-06-28T09:28:04.179Z,1003.90
2023-06-28T09:29:04.176Z,1003.94
2023-06-28T09:30:04.089Z,1003.91
2023-06-28T09:31:04.229Z,1003.91
2023-06-28T09:32:04.228Z,1003.90
2023-06-28T09:33:04.145Z,1003.93
2023-06-28T09:34:04.045Z,1003.95
2023-06-28T09:35:04.045Z,1003.94
2023-06-28T09:36:04.086Z,1003.95
2023-06-28T09:37:04.028Z,1003.97
2023-06-28T09:38:04.024Z,1003.90
2023-06-28T09:39:04.000Z,1003.94
2023-06-28T09:40:04.035Z,1003.90
2023-06-28T09:41:03.967Z,1003.92
2023-06-28T09:42:03.979Z,1003.90
2023-06-28T09:43:03.971Z,1003.90
2023-06-28T09:44:03.979Z,1003.94
2023-06-28T09:45:03.922Z,1003.90
2023-06-28T09:46:03.948Z,1003.92
2023-06-28T09:47:03.937Z,1003.92
2023-06-28T09:48:03.960Z,1003.95
2023-06-28T09:49:03.892Z,1003.95
2023-06-28T09:50:03.954Z,1003.96
2023-06-28T09:51:03.904Z,1003.97
2023-06-28T09:52:03.931Z,1003.97
2023-06-28T09:53:03.862Z,1003.93
2023-06-28T09:54:03.851Z,1003.93
2023-06-28T09:55:03.838Z,1003.93
2023-06-28T09:56:03.873Z,1003.92
2023-06-28T09:57:03.793Z,1003.88
2023-06-28T09:58:03.798Z,1003.88
2023-06-28T09:59:03.814Z,1003.91
2023-06-28T10:00:03.806Z,1003.89
2023-06-28T10:01:03.756Z,1003.93
2023-06-28T10:02:03.828Z,1003.94
2023-06-28T10:03:03.872Z,1003.98
2023-06-28T10:04:03.986Z,1003.93
2023-06-28T10:05:03.731Z,1003.91
2023-06-28T10:06:03.725Z,1003.95
2023-06-28T10:07:03.753Z,1003.98
2023-06-28T10:08:03.700Z,1003.93
2023-06-28T10:09:03.687Z,1003.95
2023-06-28T10:10:03.681Z,1003.91
2023-06-28T10:11:03.648Z,1003.90
2023-06-28T10:12:03.713Z,1003.91
2023-06-28T10:13:03.636Z,1003.95
2023-06-28T10:14:03.696Z,1003.90
2023-06-28T10:15:03.638Z,1003.97
2023-06-28T10:16:03.593Z,1003.94
2023-06-28T10:17:03.576Z,1003.94
2023-06-28T10:18:03.598Z,1003.95
2023-06-28T10:19:03.551Z,1003.96
2023-06-28T10:20:03.608Z,1003.98
2023-06-28T10:21:03.538Z,1004.02
2023-06-28T10:22:03.531Z,1004.03
2023-06-28T10:23:03.509Z,1004.00
2023-06-28T10:24:03.526Z,1003.98
2023-06-28T10:25:03.528Z,1003.97
2023-06-28T10:26:03.541Z,1003.96
2023-06-28T10:27:03.463Z,1003.97
2023-06-28T10:28:03.500Z,1003.94
2023-06-28T10:29:03.446Z,1003.96
2023-06-28T10:30:03.431Z,1003.90
2023-06-28T10:31:03.520Z,1003.93
2023-06-28T10:32:03.770Z,1003.97
2023-06-28T10:33:03.481Z,1003.98
2023-06-28T10:34:03.392Z,1003.97
2023-06-28T10:35:03.451Z,1003.92
2023-06-28T10:36:03.388Z,1003.97
2023-06-28T10:37:03.357Z,1003.95
2023-06-28T10:38:03.385Z,1003.98
2023-06-28T10:39:03.346Z,1003.94
2023-06-28T10:40:03.363Z,1003.96
2023-06-28T10:41:03.317Z,1003.94
2023-06-28T10:42:03.298Z,1003.98
2023-06-28T10:43:03.295Z,1003.99
2023-06-28T10:44:03.329Z,1004.02
2023-06-28T10:45:03.340Z,1004.01
2023-06-28T10:46:03.291Z,1004.03
2023-06-28T10:47:03.359Z,1004.04
2023-06-28T10:48:03.242Z,1004.06
2023-06-28T10:49:03.227Z,1004.04
2023-06-28T10:50:03.287Z,1004.03
2023-06-28T10:51:03.201Z,1003.98
2023-06-28T10:52:03.213Z,1004.01
2023-06-28T10:53:03.233Z,1004.03
2023-06-28T10:54:03.187Z,1004.00
2023-06-28T10:55:03.185Z,1003.96
2023-06-28T10:56:03.211Z,1004.00
2023-06-28T10:57:03.145Z,1003.97
2023-06-28T10:58:03.140Z,1003.97
2023-06-28T10:59:03.120Z,1003.94
2023-06-28T11:00:03.259Z,1003.95
2023-06-28T11:01:03.249Z,1003.94
2023-06-28T11:02:03.191Z,1003.92
2023-06-28T11:03:03.188Z,1003.90
2023-06-28T11:04:03.087Z,1003.94
2023-06-28T11:05:03.127Z,1003.85
2023-06-28T11:06:03.074Z,1003.87
2023-06-28T11:07:03.082Z,1003.82
2023-06-28T11:08:03.078Z,1003.78
2023-06-28T11:09:03.030Z,1003.75
2023-06-28T11:10:03.002Z,1003.75
2023-06-28T11:11:03.016Z,1003.74
2023-06-28T11:12:03.002Z,1003.75
2023-06-28T11:13:02.970Z,1003.71
2023-06-28T11:14:02.977Z,1003.70
2023-06-28T11:15:02.973Z,1003.72
2023-06-28T11:16:03.001Z,1003.75
2023-06-28T11:17:02.974Z,1003.76
2023-06-28T11:18:02.984Z,1003.75
2023-06-28T11:19:02.928Z,1003.75
2023-06-28T11:20:02.932Z,1003.75
2023-06-28T11:21:02.902Z,1003.80
2023-06-28T11:22:02.892Z,1003.76
2023-06-28T11:23:02.873Z,1003.74
2023-06-28T11:24:02.862Z,1003.74
2023-06-28T11:25:02.848Z,1003.75
2023-06-28T11:26:02.884Z,1003.75
2023-06-28T11:27:02.843Z,1003.72
2023-06-28T11:28:02.818Z,1003.73
2023-06-28T11:29:02.801Z,1003.75
2023-06-28T11:30:02.992Z,1003.77
2023-06-28T11:31:02.821Z,1003.78
2023-06-28T11:32:02.833Z,1003.78
2023-06-28T11:33:02.837Z,1003.70
2023-06-28T11:34:02.769Z,1003.74
2023-06-28T11:35:02.848Z,1003.76
2023-06-28T11:36:02.743Z,1003.73
2023-06-28T11:37:02.721Z,1003.78
2023-06-28T11:38:02.767Z,1003.76
2023-06-28T11:39:02.726Z,1003.75
2023-06-28T11:40:02.709Z,1003.71
2023-06-28T11:41:02.684Z,1003.70
2023-06-28T11:42:02.674Z,1003.70
2023-06-28T11:43:02.695Z,1003.69
2023-06-28T11:44:02.664Z,1003.65
2023-06-28T11:45:02.676Z,1003.73
2023-06-28T11:46:02.640Z,1003.70
2023-06-28T11:47:02.616Z,1003.73
2023-06-28T11:48:02.769Z,1003.74
2023-06-28T11:49:02.592Z,1003.69
2023-06-28T11:50:02.611Z,1003.74
2023-06-28T11:51:02.593Z,1003.71
2023-06-28T11:52:02.571Z,1003.76
2023-06-28T11:53:02.543Z,1003.76
2023-06-28T11:54:02.563Z,1003.74
2023-06-28T11:55:02.545Z,1003.78
2023-06-28T11:56:02.515Z,1003.78
2023-06-28T11:57:02.543Z,1003.71
2023-06-28T11:58:02.491Z,1003.70
2023-06-28T11:59:02.517Z,1003.68
2023-06-28T12:00:02.474Z,1003.68
2023-06-28T12:01:02.478Z,1003.68
2023-06-28T12:02:02.479Z,1003.67
2023-06-28T12:03:02.538Z,1003.65
2023-06-28T12:04:02.554Z,1003.73
2023-06-28T12:05:02.692Z,1003.68
2023-06-28T12:06:02.414Z,1003.68